sensor_id;sensor_type;location;lat;lon;timestamp;pressure;altitude;pressure_sealevel;temperature;humidity
9277;BME280;4676;42.678;23.244;2023-08-17T00:00:39;94184.97;;;21.62;100.00
9277;BME280;4676;42.678;23.244;2023-08-17T00:03:06;94191.78;;;21.63;100.00
9277;BME280;4676;42.678;23.244;2023-08-17T00:05:33;94191.38;;;21.68;100.00
9277;BME280;4676;42.678;23.244;2023-08-17T00:08:00;94182.50;;;21.61;100.00
9277;BME280;4676;42.678;23.244;2023-08-17T00:10:27;94192.16;;;21.59;100.00
9277;BME280;4676;42.678;23.244;2023-08-17T00:12:55;94177.75;;;21.56;100.00
9277;BME280;4676;42.678;23.244;2023-08-17T00:15:23;94191.47;;;21.57;100.00
9277;BME280;4676;42.678;23.244;2023-08-17T00:17:50;94187.34;;;21.54;100.00
9277;BME280;4676;42.678;23.244;2023-08-17T00:20:16;94188.88;;;21.57;100.00
9277;BME280;4676;42.678;23.244;2023-08-17T00:22:43;94188.78;;;21.47;100.00
9277;BME280;4676;42.678;23.244;2023-08-17T00:25:10;94183.06;;;21.43;100.00
9277;BME280;4676;42.678;23.244;2023-08-17T00:27:37;94191.06;;;21.40;100.00
9277;BME280;4676;42.678;23.244;2023-08-17T00:30:04;94197.06;;;21.30;100.00
9277;BME280;4676;42.678;23.244;2023-08-17T00:32:32;94193.81;;;21.28;100.00
9277;BME280;4676;42.678;23.244;2023-08-17T00:34:59;94189.91;;;21.33;100.00
9277;BME280;4676;42.678;23.244;2023-08-17T00:37:26;94193.47;;;21.21;100.00
9277;BME280;4676;42.678;23.244;2023-08-17T00:43:00;94167.16;;;20.96;100.00
9277;BME280;4676;42.678;23.244;2023-08-17T00:45:27;94145.75;;;20.84;100.00
9277;BME280;4676;42.678;23.244;2023-08-17T00:47:58;94139.00;;;20.72;100.00
9277;BME280;4676;42.678;23.244;2023-08-17T00:50:28;94102.41;;;20.46;100.00
9277;BME280;4676;42.678;23.244;2023-08-17T00:52:58;94190.69;;;20.91;100.00
9277;BME280;4676;42.678;23.244;2023-08-17T01:05:37;94180.56;;;20.78;100.00
9277;BME280;4676;42.678;23.244;2023-08-17T01:08:04;94177.38;;;20.86;100.00
9277;BME280;4676;42.678;23.244;2023-08-17T01:10:35;94173.50;;;20.80;100.00
9277;BME280;4676;42.678;23.244;2023-08-17T01:13:13;94177.25;;;20.76;100.00
9277;BME280;4676;42.678;23.244;2023-08-17T01:15:47;94177.97;;;20.78;100.00
9277;BME280;4676;42.678;23.244;2023-08-17T01:18:21;94177.97;;;20.78;100.00
9277;BME280;4676;42.678;23.244;2023-08-17T01:20:50;94168.59;;;20.77;100.00
9277;BME280;4676;42.678;23.244;2023-08-17T01:23:20;94136.34;;;20.51;100.00
9277;BME280;4676;42.678;23.244;2023-08-17T01:25:47;94165.91;;;20.79;100.00
9277;BME280;4676;42.678;23.244;2023-08-17T01:28:14;94163.34;;;20.68;100.00
9277;BME280;4676;42.678;23.244;2023-08-17T01:30:45;94170.25;;;20.67;100.00
9277;BME280;4676;42.678;23.244;2023-08-17T01:33:17;94166.19;;;20.65;100.00
9277;BME280;4676;42.678;23.244;2023-08-17T01:35:52;94165.69;;;20.60;100.00
9277;BME280;4676;42.678;23.244;2023-08-17T01:38:23;94167.34;;;20.72;100.00
9277;BME280;4676;42.678;23.244;2023-08-17T01:40:51;94168.03;;;20.63;100.00
9277;BME280;4676;42.678;23.244;2023-08-17T01:43:20;94163.94;;;20.60;100.00
9277;BME280;4676;42.678;23.244;2023-08-17T01:45:47;94163.94;;;20.60;100.00
9277;BME280;4676;42.678;23.244;2023-08-17T01:48:13;94165.47;;;20.63;100.00
9277;BME280;4676;42.678;23.244;2023-08-17T01:50:40;94170.75;;;20.61;100.00
9277;BME280;4676;42.678;23.244;2023-08-17T01:53:07;94164.63;;;20.62;100.00
9277;BME280;4676;42.678;23.244;2023-08-17T01:55:36;94169.78;;;20.62;100.00
9277;BME280;4676;42.678;23.244;2023-08-17T01:58:03;94164.28;;;20.56;100.00
9277;BME280;4676;42.678;23.244;2023-08-17T02:00:30;94166.88;;;20.56;100.00
9277;BME280;4676;42.678;23.244;2023-08-17T02:02:56;94163.97;;;20.49;100.00
9277;BME280;4676;42.678;23.244;2023-08-17T02:05:23;94165.13;;;20.56;100.00
9277;BME280;4676;42.678;23.244;2023-08-17T02:07:50;94163.84;;;20.51;100.00
9277;BME280;4676;42.678;23.244;2023-08-17T02:10:17;94163.63;;;20.54;100.00
9277;BME280;4676;42.678;23.244;2023-08-17T02:12:45;94163.03;;;20.50;100.00
9277;BME280;4676;42.678;23.244;2023-08-17T02:15:12;94164.88;;;20.48;100.00
9277;BME280;4676;42.678;23.244;2023-08-17T02:17:39;94156.81;;;20.53;100.00
9277;BME280;4676;42.678;23.244;2023-08-17T02:20:07;94166.53;;;20.49;100.00
9277;BME280;4676;42.678;23.244;2023-08-17T02:22:34;94155.31;;;20.39;100.00
9277;BME280;4676;42.678;23.244;2023-08-17T02:25:00;94164.09;;;20.36;100.00
9277;BME280;4676;42.678;23.244;2023-08-17T02:27:27;94160.81;;;20.34;100.00
9277;BME280;4676;42.678;23.244;2023-08-17T02:29:57;94163.13;;;20.37;100.00
9277;BME280;4676;42.678;23.244;2023-08-17T02:32:24;94161.19;;;20.30;100.00
9277;BME280;4676;42.678;23.244;2023-08-17T02:34:51;94158.56;;;20.19;100.00
9277;BME280;4676;42.678;23.244;2023-08-17T02:37:17;94165.13;;;20.12;100.00
9277;BME280;4676;42.678;23.244;2023-08-17T02:39:44;94160.41;;;20.06;100.00
9277;BME280;4676;42.678;23.244;2023-08-17T02:42:11;94157.97;;;19.93;100.00
9277;BME280;4676;42.678;23.244;2023-08-17T02:44:37;94161.81;;;19.87;100.00
9277;BME280;4676;42.678;23.244;2023-08-17T02:47:06;94156.78;;;19.86;100.00
9277;BME280;4676;42.678;23.244;2023-08-17T02:49:32;94159.59;;;19.83;100.00
9277;BME280;4676;42.678;23.244;2023-08-17T02:51:59;94153.50;;;19.84;100.00
9277;BME280;4676;42.678;23.244;2023-08-17T02:54:26;94157.00;;;19.72;100.00
9277;BME280;4676;42.678;23.244;2023-08-17T02:56:52;94142.50;;;19.60;100.00
9277;BME280;4676;42.678;23.244;2023-08-17T02:59:19;94159.28;;;19.64;100.00
9277;BME280;4676;42.678;23.244;2023-08-17T03:01:46;94156.13;;;19.60;100.00
9277;BME280;4676;42.678;23.244;2023-08-17T03:04:14;94164.63;;;19.50;100.00
9277;BME280;4676;42.678;23.244;2023-08-17T03:06:41;94163.03;;;19.49;100.00
9277;BME280;4676;42.678;23.244;2023-08-17T03:09:08;94167.66;;;19.43;100.00
9277;BME280;4676;42.678;23.244;2023-08-17T03:11:34;94148.91;;;19.30;100.00
9277;BME280;4676;42.678;23.244;2023-08-17T03:14:01;94159.25;;;19.41;100.00
9277;BME280;4676;42.678;23.244;2023-08-17T03:16:28;94164.03;;;19.46;100.00
9277;BME280;4676;42.678;23.244;2023-08-17T03:18:56;94164.63;;;19.50;100.00
9277;BME280;4676;42.678;23.244;2023-08-17T03:21:24;94166.75;;;19.44;100.00
9277;BME280;4676;42.678;23.244;2023-08-17T03:23:52;94162.22;;;19.35;100.00
9277;BME280;4676;42.678;23.244;2023-08-17T03:26:18;94168.41;;;19.33;100.00
9277;BME280;4676;42.678;23.244;2023-08-17T03:28:45;94166.78;;;19.32;100.00
9277;BME280;4676;42.678;23.244;2023-08-17T03:31:12;94143.13;;;19.16;100.00
9277;BME280;4676;42.678;23.244;2023-08-17T03:33:38;94166.78;;;19.32;100.00
9277;BME280;4676;42.678;23.244;2023-08-17T03:36:06;94170.63;;;19.26;100.00
9277;BME280;4676;42.678;23.244;2023-08-17T03:38:34;94173.72;;;19.19;100.00
9277;BME280;4676;42.678;23.244;2023-08-17T03:41:03;94168.75;;;19.28;100.00
9277;BME280;4676;42.678;23.244;2023-08-17T03:43:30;94170.28;;;19.31;100.00
9277;BME280;4676;42.678;23.244;2023-08-17T03:45:57;94176.31;;;19.19;100.00
9277;BME280;4676;42.678;23.244;2023-08-17T03:48:24;94178.28;;;19.15;100.00
9277;BME280;4676;42.678;23.244;2023-08-17T03:50:51;94173.34;;;19.12;100.00
9277;BME280;4676;42.678;23.244;2023-08-17T03:53:18;94183.25;;;19.06;100.00
9277;BME280;4676;42.678;23.244;2023-08-17T03:55:47;94159.69;;;18.88;100.00
9277;BME280;4676;42.678;23.244;2023-08-17T03:58:14;94188.94;;;18.98;100.00
9277;BME280;4676;42.678;23.244;2023-08-17T04:00:40;94186.69;;;18.93;100.00
9277;BME280;4676;42.678;23.244;2023-08-17T04:03:07;94186.22;;;18.88;100.00
9277;BME280;4676;42.678;23.244;2023-08-17T04:05:34;94193.38;;;18.96;100.00
9277;BME280;4676;42.678;23.244;2023-08-17T04:08:01;94187.50;;;18.94;100.00
9277;BME280;4676;42.678;23.244;2023-08-17T04:10:28;94198.59;;;18.94;100.00
9277;BME280;4676;42.678;23.244;2023-08-17T04:12:56;94190.97;;;19.06;100.00
9277;BME280;4676;42.678;23.244;2023-08-17T04:15:23;94194.34;;;19.06;100.00
9277;BME280;4676;42.678;23.244;2023-08-17T04:17:49;94194.72;;;19.13;100.00
9277;BME280;4676;42.678;23.244;2023-08-17T13:46:56;94054.63;;;30.44;51.72
9277;BME280;4676;42.678;23.244;2023-08-17T13:49:23;94047.03;;;30.20;51.33
9277;BME280;4676;42.678;23.244;2023-08-17T13:51:50;94045.16;;;29.99;52.68
9277;BME280;4676;42.678;23.244;2023-08-17T13:54:16;94048.50;;;29.93;53.41
9277;BME280;4676;42.678;23.244;2023-08-17T13:56:43;94047.41;;;30.17;52.17
9277;BME280;4676;42.678;23.244;2023-08-17T13:59:10;94049.19;;;30.31;51.22
9277;BME280;4676;42.678;23.244;2023-08-17T14:01:36;94045.50;;;30.40;52.29
9277;BME280;4676;42.678;23.244;2023-08-17T14:04:05;94045.69;;;30.53;51.99
9277;BME280;4676;42.678;23.244;2023-08-17T14:06:36;94054.88;;;30.79;50.58
9277;BME280;4676;42.678;23.244;2023-08-17T14:09:03;94046.44;;;30.83;50.37
9277;BME280;4676;42.678;23.244;2023-08-17T14:11:30;94051.13;;;30.88;49.17
9277;BME280;4676;42.678;23.244;2023-08-17T14:13:57;94030.78;;;30.90;49.30
9277;BME280;4676;42.678;23.244;2023-08-17T14:16:24;94043.44;;;31.01;49.38
9277;BME280;4676;42.678;23.244;2023-08-17T14:18:50;94048.78;;;30.93;48.57
9277;BME280;4676;42.678;23.244;2023-08-17T14:21:18;94042.16;;;30.97;47.91
9277;BME280;4676;42.678;23.244;2023-08-17T14:23:45;94045.28;;;31.07;49.59
9277;BME280;4676;42.678;23.244;2023-08-17T14:26:12;94063.34;;;31.16;47.63
9277;BME280;4676;42.678;23.244;2023-08-17T14:31:05;94057.19;;;30.73;nan
9277;BME280;4676;42.678;23.244;2023-08-17T14:35:18;94050.75;;;30.26;49.03
9277;BME280;4676;42.678;23.244;2023-08-17T14:37:45;94052.72;;;30.09;48.69
9277;BME280;4676;42.678;23.244;2023-08-17T14:40:12;94056.88;;;30.03;49.07
9277;BME280;4676;42.678;23.244;2023-08-17T14:42:38;94045.97;;;30.00;49.27
9277;BME280;4676;42.678;23.244;2023-08-17T14:45:06;94049.09;;;29.95;50.66
9277;BME280;4676;42.678;23.244;2023-08-17T14:47:33;94059.03;;;30.00;48.97
9277;BME280;4676;42.678;23.244;2023-08-17T14:49:59;94049.66;;;30.05;49.74
9277;BME280;4676;42.678;23.244;2023-08-17T14:52:28;94050.66;;;30.04;49.81
9277;BME280;4676;42.678;23.244;2023-08-17T14:54:54;94066.44;;;30.26;49.21
9277;BME280;4676;42.678;23.244;2023-08-17T14:57:21;94061.03;;;30.42;48.49
9277;BME280;4676;42.678;23.244;2023-08-17T14:59:48;94057.59;;;30.41;47.29
9277;BME280;4676;42.678;23.244;2023-08-17T15:02:14;94058.72;;;30.47;47.07
9277;BME280;4676;42.678;23.244;2023-08-17T15:04:43;94058.50;;;30.63;47.19
9277;BME280;4676;42.678;23.244;2023-08-17T15:07:10;94050.72;;;30.69;47.52
9277;BME280;4676;42.678;23.244;2023-08-17T15:09:38;94051.59;;;30.77;47.89
9277;BME280;4676;42.678;23.244;2023-08-17T15:12:05;94052.69;;;30.82;47.11
9277;BME280;4676;42.678;23.244;2023-08-17T15:14:32;94058.03;;;30.74;46.53
9277;BME280;4676;42.678;23.244;2023-08-17T15:16:59;94050.09;;;30.67;46.09
9277;BME280;4676;42.678;23.244;2023-08-17T15:19:25;94046.88;;;30.87;46.13
9277;BME280;4676;42.678;23.244;2023-08-17T15:21:52;94044.94;;;30.74;45.71
9277;BME280;4676;42.678;23.244;2023-08-17T15:24:19;94042.25;;;30.67;46.34
9277;BME280;4676;42.678;23.244;2023-08-17T15:26:47;94051.75;;;30.54;46.21
9277;BME280;4676;42.678;23.244;2023-08-17T15:29:14;94048.41;;;30.45;46.79
9277;BME280;4676;42.678;23.244;2023-08-17T15:31:40;94050.03;;;30.17;47.08
9277;BME280;4676;42.678;23.244;2023-08-17T15:34:07;94043.16;;;29.87;48.03
9277;BME280;4676;42.678;23.244;2023-08-17T15:36:34;94028.16;;;29.66;49.64
9277;BME280;4676;42.678;23.244;2023-08-17T15:39:00;94040.88;;;29.84;49.84
9277;BME280;4676;42.678;23.244;2023-08-17T15:41:27;94038.59;;;29.81;49.46
9277;BME280;4676;42.678;23.244;2023-08-17T15:43:55;94044.00;;;29.87;50.51
9277;BME280;4676;42.678;23.244;2023-08-17T15:46:22;94042.31;;;29.71;50.33
9277;BME280;4676;42.678;23.244;2023-08-17T15:48:48;94041.75;;;29.61;50.54
9277;BME280;4676;42.678;23.244;2023-08-17T15:51:15;94038.53;;;29.37;49.98
9277;BME280;4676;42.678;23.244;2023-08-17T15:53:42;94038.44;;;29.30;50.95
9277;BME280;4676;42.678;23.244;2023-08-17T16:07:26;97315.31;;;188.67;0.00
9277;BME280;4676;42.678;23.244;2023-08-17T17:11:08;58485.53;;;188.67;0.00
9277;BME280;4676;42.678;23.244;2023-08-17T17:28:15;58485.53;;;-142.38;0.00
9277;BME280;4676;42.678;23.244;2023-08-17T18:46:31;58485.53;;;-142.38;0.00
9277;BME280;4676;42.678;23.244;2023-08-17T18:51:25;58485.53;;;-142.38;0.00
9277;BME280;4676;42.678;23.244;2023-08-17T20:58:43;58485.53;;;-142.38;0.00
9277;BME280;4676;42.678;23.244;2023-08-17T21:25:48;58485.53;;;-142.38;0.00
9277;BME280;4676;42.678;23.244;2023-08-17T23:15:51;58485.53;;;-142.38;0.00
9277;BME280;4676;42.678;23.244;2023-08-17T23:40:18;58485.53;;;-142.38;0.00
